Artikler
   Vis nr. 
Nr. Artikkeltittel Dato Skribent Treff
1 Tur/retur Guayaquil – Salinas (SEGU – SESA) lørdag 6.1.2007 med Andreas Andersen fredag 26. januar 2007 Helge Aasen 2519
 
 
METAR
2021/11/28 23:50 ENCN 282350Z AUTO 02010KT 9999 OVC023/// M02/M07 Q1007
TAF
2021/11/28 18:36 TAF TAF ENCN 281700Z 2818/2823 02012KT 9999 FEW010 BKN030 PROB40 2818/2821 2500 -SN BKN008
LN-KFK
Operativ VFR-natt
VFR dag
07:55 - 16:36
Brannvakt
Inaktiv
Banner
Banner
Banner
Banner
Banner